sensor_id;sensor_type;location;lat;lon;timestamp;P1;durP1;ratioP1;P2;durP2;ratioP2
7166;SDS011;3625;51.762;14.320;2022-10-03T00:02:40;6.77;;;2.93;;
7166;SDS011;3625;51.762;14.320;2022-10-03T00:08:44;9.80;;;3.80;;
7166;SDS011;3625;51.762;14.320;2022-10-03T00:11:34;6.83;;;2.90;;
7166;SDS011;3625;51.762;14.320;2022-10-03T00:14:22;8.77;;;2.70;;
7166;SDS011;3625;51.762;14.320;2022-10-03T00:17:02;8.10;;;2.87;;
7166;SDS011;3625;51.762;14.320;2022-10-03T00:19:42;8.67;;;2.90;;
7166;SDS011;3625;51.762;14.320;2022-10-03T00:22:27;5.70;;;2.43;;
7166;SDS011;3625;51.762;14.320;2022-10-03T00:25:23;8.27;;;3.10;;
7166;SDS011;3625;51.762;14.320;2022-10-03T00:28:07;11.00;;;3.03;;
7166;SDS011;3625;51.762;14.320;2022-10-03T00:31:00;8.87;;;3.10;;
7166;SDS011;3625;51.762;14.320;2022-10-03T00:33:43;5.77;;;2.80;;
7166;SDS011;3625;51.762;14.320;2022-10-03T00:36:33;8.90;;;2.70;;
7166;SDS011;3625;51.762;14.320;2022-10-03T00:39:18;6.87;;;3.10;;
7166;SDS011;3625;51.762;14.320;2022-10-03T00:42:21;8.13;;;2.87;;
7166;SDS011;3625;51.762;14.320;2022-10-03T00:45:52;6.30;;;2.77;;
7166;SDS011;3625;51.762;14.320;2022-10-03T00:52:33;8.63;;;3.00;;
7166;SDS011;3625;51.762;14.320;2022-10-03T00:55:21;8.60;;;3.10;;
7166;SDS011;3625;51.762;14.320;2022-10-03T00:58:09;8.00;;;3.00;;
7166;SDS011;3625;51.762;14.320;2022-10-03T01:01:27;7.97;;;2.73;;
7166;SDS011;3625;51.762;14.320;2022-10-03T01:04:12;7.60;;;2.60;;
7166;SDS011;3625;51.762;14.320;2022-10-03T01:07:00;9.03;;;2.70;;
7166;SDS011;3625;51.762;14.320;2022-10-03T01:09:52;10.90;;;3.20;;
7166;SDS011;3625;51.762;14.320;2022-10-03T01:15:40;8.53;;;2.70;;
7166;SDS011;3625;51.762;14.320;2022-10-03T01:18:26;11.47;;;2.70;;
7166;SDS011;3625;51.762;14.320;2022-10-03T01:21:14;7.47;;;2.80;;
7166;SDS011;3625;51.762;14.320;2022-10-03T01:24:06;7.73;;;3.63;;
7166;SDS011;3625;51.762;14.320;2022-10-03T01:27:03;7.27;;;2.43;;
7166;SDS011;3625;51.762;14.320;2022-10-03T01:29:39;11.00;;;3.13;;
7166;SDS011;3625;51.762;14.320;2022-10-03T01:32:36;7.77;;;2.87;;
7166;SDS011;3625;51.762;14.320;2022-10-03T01:35:18;8.43;;;3.00;;
7166;SDS011;3625;51.762;14.320;2022-10-03T01:38:03;12.00;;;3.10;;
7166;SDS011;3625;51.762;14.320;2022-10-03T01:40:44;7.13;;;2.63;;
7166;SDS011;3625;51.762;14.320;2022-10-03T01:43:29;7.73;;;2.77;;
7166;SDS011;3625;51.762;14.320;2022-10-03T01:46:11;10.23;;;2.77;;
7166;SDS011;3625;51.762;14.320;2022-10-03T01:48:50;12.37;;;3.37;;
7166;SDS011;3625;51.762;14.320;2022-10-03T01:51:29;10.17;;;2.87;;
7166;SDS011;3625;51.762;14.320;2022-10-03T01:54:15;6.77;;;3.03;;
7166;SDS011;3625;51.762;14.320;2022-10-03T01:56:55;7.87;;;3.57;;
7166;SDS011;3625;51.762;14.320;2022-10-03T01:59:31;10.47;;;3.17;;
7166;SDS011;3625;51.762;14.320;2022-10-03T02:02:11;6.23;;;2.70;;
7166;SDS011;3625;51.762;14.320;2022-10-03T02:04:57;9.47;;;3.00;;
7166;SDS011;3625;51.762;14.320;2022-10-03T02:07:42;8.40;;;2.70;;
7166;SDS011;3625;51.762;14.320;2022-10-03T02:10:23;11.13;;;2.63;;
7166;SDS011;3625;51.762;14.320;2022-10-03T02:13:06;11.07;;;2.77;;
7166;SDS011;3625;51.762;14.320;2022-10-03T02:15:42;10.00;;;2.70;;
7166;SDS011;3625;51.762;14.320;2022-10-03T02:18:28;7.57;;;2.60;;
7166;SDS011;3625;51.762;14.320;2022-10-03T02:21:12;5.80;;;2.17;;
7166;SDS011;3625;51.762;14.320;2022-10-03T02:23:47;7.77;;;2.70;;
7166;SDS011;3625;51.762;14.320;2022-10-03T02:26:45;6.90;;;2.83;;
7166;SDS011;3625;51.762;14.320;2022-10-03T02:30:01;7.83;;;3.00;;
7166;SDS011;3625;51.762;14.320;2022-10-03T02:42:28;7.03;;;2.60;;
7166;SDS011;3625;51.762;14.320;2022-10-03T02:45:31;9.87;;;3.00;;
7166;SDS011;3625;51.762;14.320;2022-10-03T02:51:59;5.50;;;3.00;;
7166;SDS011;3625;51.762;14.320;2022-10-03T02:55:05;6.07;;;2.90;;
7166;SDS011;3625;51.762;14.320;2022-10-03T02:58:20;6.63;;;2.13;;
7166;SDS011;3625;51.762;14.320;2022-10-03T03:01:36;6.73;;;2.80;;
7166;SDS011;3625;51.762;14.320;2022-10-03T03:04:56;7.93;;;2.60;;
7166;SDS011;3625;51.762;14.320;2022-10-03T03:08:19;5.87;;;2.50;;
7166;SDS011;3625;51.762;14.320;2022-10-03T03:18:14;8.63;;;2.30;;
7166;SDS011;3625;51.762;14.320;2022-10-03T03:21:01;5.30;;;2.87;;
7166;SDS011;3625;51.762;14.320;2022-10-03T03:24:08;6.97;;;2.60;;
7166;SDS011;3625;51.762;14.320;2022-10-03T03:27:15;7.67;;;2.97;;
7166;SDS011;3625;51.762;14.320;2022-10-03T03:30:01;6.13;;;2.80;;
7166;SDS011;3625;51.762;14.320;2022-10-03T03:32:43;5.83;;;2.63;;
7166;SDS011;3625;51.762;14.320;2022-10-03T03:35:30;8.03;;;2.50;;
7166;SDS011;3625;51.762;14.320;2022-10-03T03:38:22;7.93;;;3.10;;
7166;SDS011;3625;51.762;14.320;2022-10-03T03:41:04;6.17;;;2.63;;
7166;SDS011;3625;51.762;14.320;2022-10-03T03:44:06;6.87;;;2.90;;
7166;SDS011;3625;51.762;14.320;2022-10-03T03:47:24;4.77;;;2.97;;
7166;SDS011;3625;51.762;14.320;2022-10-03T03:50:17;8.27;;;2.50;;
7166;SDS011;3625;51.762;14.320;2022-10-03T03:53:04;4.23;;;2.50;;
7166;SDS011;3625;51.762;14.320;2022-10-03T03:56:05;6.30;;;2.50;;
7166;SDS011;3625;51.762;14.320;2022-10-03T03:59:02;4.93;;;2.40;;
7166;SDS011;3625;51.762;14.320;2022-10-03T04:01:51;6.40;;;2.47;;
7166;SDS011;3625;51.762;14.320;2022-10-03T04:04:51;8.47;;;3.43;;
7166;SDS011;3625;51.762;14.320;2022-10-03T04:07:40;7.13;;;3.03;;
7166;SDS011;3625;51.762;14.320;2022-10-03T04:10:30;9.87;;;3.17;;
7166;SDS011;3625;51.762;14.320;2022-10-03T04:13:25;7.83;;;3.53;;
7166;SDS011;3625;51.762;14.320;2022-10-03T04:16:16;7.00;;;3.87;;
7166;SDS011;3625;51.762;14.320;2022-10-03T04:19:22;6.10;;;2.40;;
7166;SDS011;3625;51.762;14.320;2022-10-03T04:22:08;11.03;;;2.83;;
7166;SDS011;3625;51.762;14.320;2022-10-03T04:25:07;6.47;;;2.83;;
7166;SDS011;3625;51.762;14.320;2022-10-03T04:31:06;8.03;;;3.17;;
7166;SDS011;3625;51.762;14.320;2022-10-03T04:33:58;6.90;;;2.80;;
7166;SDS011;3625;51.762;14.320;2022-10-03T04:36:54;7.23;;;2.50;;
7166;SDS011;3625;51.762;14.320;2022-10-03T04:39:44;5.10;;;2.90;;
7166;SDS011;3625;51.762;14.320;2022-10-03T04:42:34;7.07;;;2.60;;
7166;SDS011;3625;51.762;14.320;2022-10-03T04:45:23;10.90;;;2.72;;
7166;SDS011;3625;51.762;14.320;2022-10-03T04:48:09;6.00;;;2.53;;
7166;SDS011;3625;51.762;14.320;2022-10-03T04:50:48;3.67;;;2.50;;
7166;SDS011;3625;51.762;14.320;2022-10-03T04:53:36;5.90;;;2.80;;
7166;SDS011;3625;51.762;14.320;2022-10-03T04:56:22;8.37;;;3.83;;
7166;SDS011;3625;51.762;14.320;2022-10-03T04:59:09;6.40;;;2.53;;
7166;SDS011;3625;51.762;14.320;2022-10-03T05:02:07;9.97;;;2.70;;
7166;SDS011;3625;51.762;14.320;2022-10-03T05:04:55;6.83;;;2.60;;
7166;SDS011;3625;51.762;14.320;2022-10-03T05:07:44;5.30;;;2.20;;
7166;SDS011;3625;51.762;14.320;2022-10-03T05:13:21;9.03;;;2.73;;
7166;SDS011;3625;51.762;14.320;2022-10-03T05:16:10;7.83;;;3.00;;
7166;SDS011;3625;51.762;14.320;2022-10-03T05:19:03;8.13;;;2.70;;
7166;SDS011;3625;51.762;14.320;2022-10-03T05:22:00;3.97;;;2.10;;
7166;SDS011;3625;51.762;14.320;2022-10-03T05:24:40;6.70;;;2.73;;
7166;SDS011;3625;51.762;14.320;2022-10-03T05:27:21;5.17;;;2.40;;
7166;SDS011;3625;51.762;14.320;2022-10-03T05:30:04;7.60;;;2.60;;
7166;SDS011;3625;51.762;14.320;2022-10-03T05:32:44;6.00;;;2.30;;
7166;SDS011;3625;51.762;14.320;2022-10-03T05:35:26;7.03;;;2.77;;
7166;SDS011;3625;51.762;14.320;2022-10-03T05:41:29;8.47;;;2.73;;
7166;SDS011;3625;51.762;14.320;2022-10-03T05:44:02;6.50;;;2.37;;
7166;SDS011;3625;51.762;14.320;2022-10-03T05:46:49;4.63;;;2.50;;
7166;SDS011;3625;51.762;14.320;2022-10-03T05:49:36;10.17;;;3.10;;
7166;SDS011;3625;51.762;14.320;2022-10-03T05:52:47;6.27;;;2.30;;
7166;SDS011;3625;51.762;14.320;2022-10-03T05:55:33;5.93;;;2.60;;
7166;SDS011;3625;51.762;14.320;2022-10-03T06:01:51;6.10;;;2.97;;
7166;SDS011;3625;51.762;14.320;2022-10-03T06:04:58;6.60;;;2.80;;
7166;SDS011;3625;51.762;14.320;2022-10-03T06:07:53;7.97;;;2.90;;
7166;SDS011;3625;51.762;14.320;2022-10-03T06:10:48;8.40;;;3.23;;
7166;SDS011;3625;51.762;14.320;2022-10-03T06:13:36;7.80;;;2.60;;
7166;SDS011;3625;51.762;14.320;2022-10-03T06:16:26;6.80;;;3.03;;
7166;SDS011;3625;51.762;14.320;2022-10-03T06:19:17;4.83;;;3.00;;
7166;SDS011;3625;51.762;14.320;2022-10-03T06:22:23;13.37;;;3.17;;
7166;SDS011;3625;51.762;14.320;2022-10-03T06:25:54;6.93;;;2.60;;
7166;SDS011;3625;51.762;14.320;2022-10-03T06:29:17;4.90;;;2.43;;
7166;SDS011;3625;51.762;14.320;2022-10-03T06:35:55;8.43;;;2.93;;
7166;SDS011;3625;51.762;14.320;2022-10-03T06:52:02;6.03;;;2.43;;
7166;SDS011;3625;51.762;14.320;2022-10-03T06:58:36;5.50;;;2.53;;
7166;SDS011;3625;51.762;14.320;2022-10-03T07:02:05;11.97;;;2.97;;
7166;SDS011;3625;51.762;14.320;2022-10-03T07:08:57;9.73;;;2.60;;
7166;SDS011;3625;51.762;14.320;2022-10-03T07:15:40;9.83;;;2.40;;
7166;SDS011;3625;51.762;14.320;2022-10-03T07:26:13;5.28;;;2.28;;
7166;SDS011;3625;51.762;14.320;2022-10-03T07:29:36;6.40;;;2.97;;
7166;SDS011;3625;51.762;14.320;2022-10-03T07:32:40;6.33;;;2.63;;
7166;SDS011;3625;51.762;14.320;2022-10-03T07:36:05;7.35;;;2.65;;
7166;SDS011;3625;51.762;14.320;2022-10-03T07:43:06;4.53;;;2.37;;
7166;SDS011;3625;51.762;14.320;2022-10-03T07:46:25;8.23;;;3.30;;
7166;SDS011;3625;51.762;14.320;2022-10-03T07:49:38;9.60;;;2.73;;
7166;SDS011;3625;51.762;14.320;2022-10-03T07:52:38;10.55;;;3.28;;
7166;SDS011;3625;51.762;14.320;2022-10-03T07:55:57;8.43;;;2.53;;
7166;SDS011;3625;51.762;14.320;2022-10-03T07:58:48;6.20;;;2.22;;
7166;SDS011;3625;51.762;14.320;2022-10-03T08:01:54;7.80;;;2.60;;
7166;SDS011;3625;51.762;14.320;2022-10-03T08:04:53;5.93;;;2.28;;
7166;SDS011;3625;51.762;14.320;2022-10-03T08:07:51;5.05;;;2.20;;
7166;SDS011;3625;51.762;14.320;2022-10-03T08:11:01;5.70;;;2.45;;
7166;SDS011;3625;51.762;14.320;2022-10-03T08:14:00;6.47;;;2.50;;
7166;SDS011;3625;51.762;14.320;2022-10-03T08:16:50;5.90;;;2.40;;
7166;SDS011;3625;51.762;14.320;2022-10-03T08:20:02;7.47;;;2.70;;
7166;SDS011;3625;51.762;14.320;2022-10-03T08:23:08;8.73;;;2.80;;
7166;SDS011;3625;51.762;14.320;2022-10-03T08:26:05;7.23;;;2.27;;
7166;SDS011;3625;51.762;14.320;2022-10-03T08:28:51;6.17;;;2.20;;
7166;SDS011;3625;51.762;14.320;2022-10-03T08:35:24;7.13;;;2.50;;
7166;SDS011;3625;51.762;14.320;2022-10-03T08:38:19;5.33;;;2.43;;
7166;SDS011;3625;51.762;14.320;2022-10-03T08:45:11;7.00;;;2.63;;
7166;SDS011;3625;51.762;14.320;2022-10-03T08:48:28;9.52;;;2.60;;
7166;SDS011;3625;51.762;14.320;2022-10-03T08:54:41;6.28;;;2.85;;
7166;SDS011;3625;51.762;14.320;2022-10-03T09:01:27;5.35;;;1.95;;
7166;SDS011;3625;51.762;14.320;2022-10-03T09:07:56;7.32;;;2.22;;
7166;SDS011;3625;51.762;14.320;2022-10-03T09:14:45;6.57;;;2.25;;
7166;SDS011;3625;51.762;14.320;2022-10-03T09:24:39;4.32;;;2.33;;
7166;SDS011;3625;51.762;14.320;2022-10-03T09:27:53;6.82;;;2.38;;
7166;SDS011;3625;51.762;14.320;2022-10-03T09:31:19;6.35;;;2.63;;
7166;SDS011;3625;51.762;14.320;2022-10-03T09:38:11;5.95;;;2.40;;
7166;SDS011;3625;51.762;14.320;2022-10-03T09:41:25;6.18;;;2.22;;
7166;SDS011;3625;51.762;14.320;2022-10-03T09:57:36;7.50;;;3.05;;
7166;SDS011;3625;51.762;14.320;2022-10-03T10:00:40;7.57;;;2.22;;
7166;SDS011;3625;51.762;14.320;2022-10-03T10:07:29;6.10;;;2.25;;
7166;SDS011;3625;51.762;14.320;2022-10-03T10:10:42;6.68;;;2.60;;
7166;SDS011;3625;51.762;14.320;2022-10-03T10:13:37;5.40;;;2.08;;
7166;SDS011;3625;51.762;14.320;2022-10-03T10:20:38;5.05;;;2.00;;
7166;SDS011;3625;51.762;14.320;2022-10-03T10:23:57;7.22;;;2.35;;
7166;SDS011;3625;51.762;14.320;2022-10-03T10:27:09;6.40;;;1.92;;
7166;SDS011;3625;51.762;14.320;2022-10-03T10:40:31;6.78;;;2.35;;
7166;SDS011;3625;51.762;14.320;2022-10-03T10:43:52;4.85;;;2.13;;
7166;SDS011;3625;51.762;14.320;2022-10-03T10:47:11;4.00;;;2.10;;
7166;SDS011;3625;51.762;14.320;2022-10-03T10:50:42;7.00;;;2.20;;
7166;SDS011;3625;51.762;14.320;2022-10-03T10:57:42;5.82;;;3.13;;
7166;SDS011;3625;51.762;14.320;2022-10-03T11:01:25;6.68;;;2.58;;
7166;SDS011;3625;51.762;14.320;2022-10-03T11:08:25;6.22;;;2.25;;
7166;SDS011;3625;51.762;14.320;2022-10-03T11:18:43;4.80;;;1.80;;
7166;SDS011;3625;51.762;14.320;2022-10-03T11:22:26;5.82;;;1.88;;
7166;SDS011;3625;51.762;14.320;2022-10-03T11:29:30;8.00;;;2.35;;
7166;SDS011;3625;51.762;14.320;2022-10-03T11:39:35;8.43;;;2.47;;
7166;SDS011;3625;51.762;14.320;2022-10-03T11:42:19;5.95;;;2.17;;
7166;SDS011;3625;51.762;14.320;2022-10-03T11:44:59;5.63;;;2.13;;
7166;SDS011;3625;51.762;14.320;2022-10-03T11:47:43;4.50;;;1.90;;
7166;SDS011;3625;51.762;14.320;2022-10-03T11:50:28;7.70;;;2.30;;
7166;SDS011;3625;51.762;14.320;2022-10-03T11:56:29;6.72;;;1.98;;
7166;SDS011;3625;51.762;14.320;2022-10-03T12:02:15;4.90;;;2.33;;
7166;SDS011;3625;51.762;14.320;2022-10-03T12:05:17;7.95;;;2.75;;
7166;SDS011;3625;51.762;14.320;2022-10-03T12:07:58;6.90;;;2.63;;
7166;SDS011;3625;51.762;14.320;2022-10-03T12:11:06;6.85;;;2.13;;
7166;SDS011;3625;51.762;14.320;2022-10-03T12:13:57;5.60;;;2.10;;
7166;SDS011;3625;51.762;14.320;2022-10-03T12:16:46;7.93;;;2.22;;
7166;SDS011;3625;51.762;14.320;2022-10-03T12:19:32;8.80;;;2.17;;
7166;SDS011;3625;51.762;14.320;2022-10-03T12:22:17;4.80;;;1.90;;
7166;SDS011;3625;51.762;14.320;2022-10-03T12:25:05;4.32;;;2.00;;
7166;SDS011;3625;51.762;14.320;2022-10-03T12:27:49;6.93;;;2.13;;
7166;SDS011;3625;51.762;14.320;2022-10-03T12:30:42;6.18;;;1.80;;
7166;SDS011;3625;51.762;14.320;2022-10-03T12:33:22;5.22;;;1.77;;
7166;SDS011;3625;51.762;14.320;2022-10-03T12:36:15;3.40;;;1.80;;
7166;SDS011;3625;51.762;14.320;2022-10-03T12:38:55;5.65;;;2.00;;
7166;SDS011;3625;51.762;14.320;2022-10-03T12:41:53;7.68;;;2.50;;
7166;SDS011;3625;51.762;14.320;2022-10-03T12:44:44;5.45;;;1.80;;
7166;SDS011;3625;51.762;14.320;2022-10-03T12:47:32;3.30;;;1.80;;
7166;SDS011;3625;51.762;14.320;2022-10-03T12:50:28;4.88;;;1.85;;
7166;SDS011;3625;51.762;14.320;2022-10-03T12:56:05;4.78;;;1.77;;
7166;SDS011;3625;51.762;14.320;2022-10-03T12:58:49;3.75;;;1.80;;
7166;SDS011;3625;51.762;14.320;2022-10-03T13:01:44;5.15;;;2.08;;
7166;SDS011;3625;51.762;14.320;2022-10-03T13:04:39;3.83;;;1.63;;
7166;SDS011;3625;51.762;14.320;2022-10-03T13:07:23;5.22;;;1.90;;
7166;SDS011;3625;51.762;14.320;2022-10-03T13:10:12;4.97;;;2.13;;
7166;SDS011;3625;51.762;14.320;2022-10-03T13:13:00;7.75;;;2.00;;
7166;SDS011;3625;51.762;14.320;2022-10-03T13:16:02;5.00;;;1.80;;
7166;SDS011;3625;51.762;14.320;2022-10-03T13:18:52;5.18;;;2.05;;
7166;SDS011;3625;51.762;14.320;2022-10-03T13:21:42;4.55;;;1.67;;
7166;SDS011;3625;51.762;14.320;2022-10-03T13:24:24;3.50;;;1.50;;
7166;SDS011;3625;51.762;14.320;2022-10-03T13:27:02;4.10;;;1.77;;
7166;SDS011;3625;51.762;14.320;2022-10-03T13:29:52;5.85;;;1.92;;
7166;SDS011;3625;51.762;14.320;2022-10-03T13:32:31;7.15;;;2.10;;
7166;SDS011;3625;51.762;14.320;2022-10-03T13:35:06;3.85;;;1.80;;
7166;SDS011;3625;51.762;14.320;2022-10-03T13:38:21;4.65;;;1.60;;
7166;SDS011;3625;51.762;14.320;2022-10-03T13:41:41;5.28;;;1.70;;
7166;SDS011;3625;51.762;14.320;2022-10-03T13:44:32;4.65;;;1.50;;
7166;SDS011;3625;51.762;14.320;2022-10-03T13:47:10;5.25;;;2.05;;
7166;SDS011;3625;51.762;14.320;2022-10-03T13:49:55;4.00;;;1.50;;
7166;SDS011;3625;51.762;14.320;2022-10-03T13:52:32;3.47;;;1.63;;
7166;SDS011;3625;51.762;14.320;2022-10-03T13:55:12;5.03;;;1.42;;
7166;SDS011;3625;51.762;14.320;2022-10-03T14:01:15;2.60;;;1.42;;
7166;SDS011;3625;51.762;14.320;2022-10-03T14:04:08;4.22;;;1.67;;
7166;SDS011;3625;51.762;14.320;2022-10-03T14:07:12;4.05;;;1.75;;
7166;SDS011;3625;51.762;14.320;2022-10-03T14:10:03;4.10;;;1.70;;
7166;SDS011;3625;51.762;14.320;2022-10-03T14:13:01;3.97;;;1.70;;
7166;SDS011;3625;51.762;14.320;2022-10-03T14:15:49;8.10;;;1.80;;
7166;SDS011;3625;51.762;14.320;2022-10-03T14:18:37;3.55;;;1.88;;
7166;SDS011;3625;51.762;14.320;2022-10-03T14:21:25;6.13;;;1.92;;
7166;SDS011;3625;51.762;14.320;2022-10-03T14:27:41;5.25;;;2.55;;
7166;SDS011;3625;51.762;14.320;2022-10-03T14:30:18;4.55;;;1.63;;
7166;SDS011;3625;51.762;14.320;2022-10-03T14:33:01;4.85;;;1.70;;
7166;SDS011;3625;51.762;14.320;2022-10-03T14:35:46;4.15;;;2.22;;
7166;SDS011;3625;51.762;14.320;2022-10-03T14:44:39;4.22;;;1.80;;
7166;SDS011;3625;51.762;14.320;2022-10-03T14:47:13;6.28;;;2.00;;
7166;SDS011;3625;51.762;14.320;2022-10-03T14:49:46;3.05;;;1.70;;
7166;SDS011;3625;51.762;14.320;2022-10-03T14:52:26;5.00;;;2.03;;
7166;SDS011;3625;51.762;14.320;2022-10-03T14:55:06;4.43;;;1.70;;
7166;SDS011;3625;51.762;14.320;2022-10-03T14:57:43;4.18;;;2.10;;
7166;SDS011;3625;51.762;14.320;2022-10-03T15:00:38;5.10;;;2.25;;
7166;SDS011;3625;51.762;14.320;2022-10-03T15:03:29;6.82;;;2.60;;
7166;SDS011;3625;51.762;14.320;2022-10-03T15:06:20;4.85;;;1.88;;
7166;SDS011;3625;51.762;14.320;2022-10-03T15:09:00;5.72;;;2.33;;
7166;SDS011;3625;51.762;14.320;2022-10-03T15:11:35;3.60;;;1.80;;
7166;SDS011;3625;51.762;14.320;2022-10-03T15:14:13;4.15;;;2.35;;
7166;SDS011;3625;51.762;14.320;2022-10-03T15:16:45;4.60;;;1.90;;
7166;SDS011;3625;51.762;14.320;2022-10-03T15:19:22;2.40;;;1.70;;
7166;SDS011;3625;51.762;14.320;2022-10-03T15:22:01;9.77;;;2.40;;
7166;SDS011;3625;51.762;14.320;2022-10-03T15:24:40;5.63;;;2.47;;
7166;SDS011;3625;51.762;14.320;2022-10-03T15:27:11;4.35;;;2.05;;
7166;SDS011;3625;51.762;14.320;2022-10-03T15:29:48;5.30;;;2.20;;
7166;SDS011;3625;51.762;14.320;2022-10-03T15:32:24;5.63;;;1.95;;
7166;SDS011;3625;51.762;14.320;2022-10-03T15:35:00;3.55;;;2.10;;
7166;SDS011;3625;51.762;14.320;2022-10-03T15:37:33;4.28;;;1.80;;
7166;SDS011;3625;51.762;14.320;2022-10-03T15:40:18;5.47;;;2.08;;
7166;SDS011;3625;51.762;14.320;2022-10-03T15:43:03;4.13;;;2.25;;
7166;SDS011;3625;51.762;14.320;2022-10-03T15:45:46;7.03;;;2.30;;
7166;SDS011;3625;51.762;14.320;2022-10-03T15:48:17;4.38;;;1.67;;
7166;SDS011;3625;51.762;14.320;2022-10-03T15:50:51;2.88;;;1.70;;
7166;SDS011;3625;51.762;14.320;2022-10-03T15:53:24;4.55;;;1.95;;
7166;SDS011;3625;51.762;14.320;2022-10-03T15:56:07;4.47;;;1.88;;
7166;SDS011;3625;51.762;14.320;2022-10-03T15:58:44;5.22;;;1.80;;
7166;SDS011;3625;51.762;14.320;2022-10-03T16:01:17;5.90;;;2.13;;
7166;SDS011;3625;51.762;14.320;2022-10-03T16:03:54;3.00;;;2.03;;
7166;SDS011;3625;51.762;14.320;2022-10-03T16:06:29;3.70;;;1.67;;
7166;SDS011;3625;51.762;14.320;2022-10-03T16:09:14;3.72;;;1.80;;
7166;SDS011;3625;51.762;14.320;2022-10-03T16:11:56;8.13;;;2.10;;
7166;SDS011;3625;51.762;14.320;2022-10-03T16:14:42;3.55;;;1.90;;
7166;SDS011;3625;51.762;14.320;2022-10-03T16:17:17;4.03;;;1.88;;
7166;SDS011;3625;51.762;14.320;2022-10-03T16:19:57;4.72;;;1.80;;
7166;SDS011;3625;51.762;14.320;2022-10-03T16:22:39;3.50;;;1.83;;
7166;SDS011;3625;51.762;14.320;2022-10-03T16:25:16;5.65;;;2.20;;
7166;SDS011;3625;51.762;14.320;2022-10-03T16:27:50;4.40;;;2.00;;
7166;SDS011;3625;51.762;14.320;2022-10-03T16:30:25;6.15;;;1.95;;
7166;SDS011;3625;51.762;14.320;2022-10-03T16:33:01;4.45;;;1.60;;
7166;SDS011;3625;51.762;14.320;2022-10-03T16:35:42;3.90;;;1.88;;
7166;SDS011;3625;51.762;14.320;2022-10-03T16:38:18;5.53;;;1.90;;
7166;SDS011;3625;51.762;14.320;2022-10-03T16:40:51;4.85;;;1.70;;
7166;SDS011;3625;51.762;14.320;2022-10-03T16:43:29;6.95;;;2.22;;
7166;SDS011;3625;51.762;14.320;2022-10-03T16:46:00;3.67;;;1.60;;
7166;SDS011;3625;51.762;14.320;2022-10-03T16:48:40;4.82;;;1.65;;
7166;SDS011;3625;51.762;14.320;2022-10-03T16:51:34;3.83;;;1.90;;
7166;SDS011;3625;51.762;14.320;2022-10-03T16:54:10;6.50;;;2.15;;
7166;SDS011;3625;51.762;14.320;2022-10-03T16:56:42;4.45;;;1.80;;
7166;SDS011;3625;51.762;14.320;2022-10-03T16:59:16;5.90;;;2.03;;
7166;SDS011;3625;51.762;14.320;2022-10-03T17:01:48;3.67;;;2.45;;
7166;SDS011;3625;51.762;14.320;2022-10-03T17:04:20;5.80;;;1.95;;
7166;SDS011;3625;51.762;14.320;2022-10-03T17:06:54;6.13;;;2.72;;
7166;SDS011;3625;51.762;14.320;2022-10-03T17:09:27;4.88;;;1.95;;
7166;SDS011;3625;51.762;14.320;2022-10-03T17:12:05;4.28;;;1.98;;
7166;SDS011;3625;51.762;14.320;2022-10-03T17:14:42;4.45;;;1.98;;
7166;SDS011;3625;51.762;14.320;2022-10-03T17:17:18;6.05;;;2.33;;
7166;SDS011;3625;51.762;14.320;2022-10-03T17:19:58;5.10;;;2.15;;
7166;SDS011;3625;51.762;14.320;2022-10-03T17:22:36;4.78;;;2.03;;
7166;SDS011;3625;51.762;14.320;2022-10-03T17:28:11;5.93;;;2.20;;
7166;SDS011;3625;51.762;14.320;2022-10-03T17:30:54;5.07;;;2.10;;
7166;SDS011;3625;51.762;14.320;2022-10-03T17:33:31;4.75;;;1.90;;
7166;SDS011;3625;51.762;14.320;2022-10-03T17:36:34;3.60;;;1.80;;
7166;SDS011;3625;51.762;14.320;2022-10-03T17:39:40;5.78;;;2.30;;
7166;SDS011;3625;51.762;14.320;2022-10-03T17:42:31;7.88;;;2.67;;
7166;SDS011;3625;51.762;14.320;2022-10-03T17:45:18;6.50;;;2.22;;
7166;SDS011;3625;51.762;14.320;2022-10-03T17:48:03;3.83;;;1.80;;
7166;SDS011;3625;51.762;14.320;2022-10-03T17:50:49;5.60;;;2.30;;
7166;SDS011;3625;51.762;14.320;2022-10-03T17:53:28;4.38;;;2.03;;
7166;SDS011;3625;51.762;14.320;2022-10-03T17:56:04;4.70;;;1.90;;
7166;SDS011;3625;51.762;14.320;2022-10-03T17:58:40;5.15;;;2.00;;
7166;SDS011;3625;51.762;14.320;2022-10-03T18:01:16;4.32;;;1.80;;
7166;SDS011;3625;51.762;14.320;2022-10-03T18:03:48;3.47;;;1.80;;
7166;SDS011;3625;51.762;14.320;2022-10-03T18:06:36;5.15;;;2.30;;
7166;SDS011;3625;51.762;14.320;2022-10-03T18:09:23;7.03;;;2.30;;
7166;SDS011;3625;51.762;14.320;2022-10-03T18:12:03;6.68;;;2.22;;
7166;SDS011;3625;51.762;14.320;2022-10-03T18:14:45;5.97;;;2.10;;
7166;SDS011;3625;51.762;14.320;2022-10-03T18:17:39;5.57;;;2.25;;
7166;SDS011;3625;51.762;14.320;2022-10-03T18:20:30;5.90;;;2.45;;
7166;SDS011;3625;51.762;14.320;2022-10-03T18:23:15;5.93;;;2.33;;
7166;SDS011;3625;51.762;14.320;2022-10-03T18:26:19;5.05;;;1.70;;
7166;SDS011;3625;51.762;14.320;2022-10-03T18:28:59;6.13;;;2.00;;
7166;SDS011;3625;51.762;14.320;2022-10-03T18:31:43;3.78;;;2.03;;
7166;SDS011;3625;51.762;14.320;2022-10-03T18:34:24;4.72;;;1.88;;
7166;SDS011;3625;51.762;14.320;2022-10-03T18:37:14;5.28;;;2.00;;
7166;SDS011;3625;51.762;14.320;2022-10-03T18:40:32;4.97;;;1.80;;
7166;SDS011;3625;51.762;14.320;2022-10-03T18:43:04;3.47;;;1.73;;
7166;SDS011;3625;51.762;14.320;2022-10-03T18:45:54;5.63;;;1.98;;
7166;SDS011;3625;51.762;14.320;2022-10-03T18:48:41;5.07;;;2.55;;
7166;SDS011;3625;51.762;14.320;2022-10-03T18:51:42;4.05;;;1.60;;
7166;SDS011;3625;51.762;14.320;2022-10-03T18:54:17;5.05;;;1.73;;
7166;SDS011;3625;51.762;14.320;2022-10-03T18:57:04;4.30;;;2.15;;
7166;SDS011;3625;51.762;14.320;2022-10-03T18:59:43;3.70;;;1.88;;
7166;SDS011;3625;51.762;14.320;2022-10-03T19:02:22;4.47;;;1.90;;
7166;SDS011;3625;51.762;14.320;2022-10-03T19:04:58;5.68;;;2.08;;
7166;SDS011;3625;51.762;14.320;2022-10-03T19:07:42;4.68;;;1.77;;
7166;SDS011;3625;51.762;14.320;2022-10-03T19:10:20;3.00;;;1.50;;
7166;SDS011;3625;51.762;14.320;2022-10-03T19:13:17;5.05;;;2.28;;
7166;SDS011;3625;51.762;14.320;2022-10-03T19:16:10;3.28;;;1.75;;
7166;SDS011;3625;51.762;14.320;2022-10-03T19:19:02;2.17;;;1.67;;
7166;SDS011;3625;51.762;14.320;2022-10-03T19:21:38;2.33;;;1.50;;
7166;SDS011;3625;51.762;14.320;2022-10-03T19:24:09;3.17;;;1.70;;
7166;SDS011;3625;51.762;14.320;2022-10-03T19:27:00;4.25;;;1.50;;
7166;SDS011;3625;51.762;14.320;2022-10-03T19:29:39;3.40;;;1.90;;
7166;SDS011;3625;51.762;14.320;2022-10-03T19:32:17;4.55;;;1.70;;
7166;SDS011;3625;51.762;14.320;2022-10-03T19:34:57;3.80;;;1.88;;
7166;SDS011;3625;51.762;14.320;2022-10-03T19:37:34;4.97;;;2.00;;
7166;SDS011;3625;51.762;14.320;2022-10-03T19:40:14;4.72;;;1.90;;
7166;SDS011;3625;51.762;14.320;2022-10-03T19:43:15;3.17;;;1.50;;
7166;SDS011;3625;51.762;14.320;2022-10-03T19:46:10;4.30;;;1.92;;
7166;SDS011;3625;51.762;14.320;2022-10-03T19:49:03;3.47;;;1.90;;
7166;SDS011;3625;51.762;14.320;2022-10-03T19:51:50;3.95;;;1.80;;
7166;SDS011;3625;51.762;14.320;2022-10-03T19:54:42;5.57;;;1.85;;
7166;SDS011;3625;51.762;14.320;2022-10-03T19:57:16;4.20;;;1.50;;
7166;SDS011;3625;51.762;14.320;2022-10-03T19:59:49;3.97;;;1.73;;
7166;SDS011;3625;51.762;14.320;2022-10-03T20:02:22;4.28;;;1.70;;
7166;SDS011;3625;51.762;14.320;2022-10-03T20:04:53;4.38;;;2.10;;
7166;SDS011;3625;51.762;14.320;2022-10-03T20:07:32;3.70;;;1.60;;
7166;SDS011;3625;51.762;14.320;2022-10-03T20:10:20;2.30;;;1.50;;
7166;SDS011;3625;51.762;14.320;2022-10-03T20:13:06;3.88;;;2.15;;
7166;SDS011;3625;51.762;14.320;2022-10-03T20:15:39;3.67;;;1.70;;
7166;SDS011;3625;51.762;14.320;2022-10-03T20:18:13;3.22;;;1.50;;
7166;SDS011;3625;51.762;14.320;2022-10-03T20:20:50;6.47;;;1.88;;
7166;SDS011;3625;51.762;14.320;2022-10-03T20:23:23;3.90;;;1.85;;
7166;SDS011;3625;51.762;14.320;2022-10-03T20:25:57;4.00;;;1.65;;
7166;SDS011;3625;51.762;14.320;2022-10-03T20:28:40;2.63;;;2.05;;
7166;SDS011;3625;51.762;14.320;2022-10-03T20:31:29;3.65;;;1.75;;
7166;SDS011;3625;51.762;14.320;2022-10-03T20:34:05;4.57;;;1.80;;
7166;SDS011;3625;51.762;14.320;2022-10-03T20:36:41;3.20;;;1.60;;